Terminal Aerodrome Forecast
Issued by NWS

Home | Current Version | Previous Version | Text Only | Print | Product List | Glossary Off
Versions: 1 2 3 4 5 6 7 8 9 10 11 12 13

108
FTUS42 KMHX 201327 AAA
TAFISO
TAF AMD
KISO 201327Z 2013/2112 01005KT P6SM FEW025 SCT050
      TEMPO 2013/2014 BKN006
     FM201800 03005KT P6SM VCTS SCT050CB
     FM202300 VRB04KT P6SM FEW050 SCT250
     FM210900 VRB03KT 3SM BR SKC
      AMD LTD TO CLD VIS AND WIND=

USA.gov is the U.S. government's official web portal to all federal, state and local government web resources and services.